sensor_id;sensor_type;location;lat;lon;timestamp;pressure;altitude;pressure_sealevel;temperature;humidity
46506;BME280;32220;49.808;9.968;2023-03-03T00:00:58;99143.69;;;2.59;56.32
46506;BME280;32220;49.808;9.968;2023-03-03T00:03:26;99144.59;;;2.58;56.73
46506;BME280;32220;49.808;9.968;2023-03-03T00:05:54;99143.69;;;2.59;55.74
46506;BME280;32220;49.808;9.968;2023-03-03T00:08:22;99146.34;;;2.58;55.76
46506;BME280;32220;49.808;9.968;2023-03-03T00:10:50;99142.91;;;2.56;55.53
46506;BME280;32220;49.808;9.968;2023-03-03T00:13:22;99134.56;;;2.41;55.32
46506;BME280;32220;49.808;9.968;2023-03-03T00:15:50;99148.28;;;2.49;55.42
46506;BME280;32220;49.808;9.968;2023-03-03T00:18:25;99151.78;;;2.48;56.10
46506;BME280;32220;49.808;9.968;2023-03-03T00:20:56;99158.84;;;2.46;55.94
46506;BME280;32220;49.808;9.968;2023-03-03T00:23:29;99152.19;;;2.33;56.02
46506;BME280;32220;49.808;9.968;2023-03-03T00:25:57;99161.56;;;2.42;56.10
46506;BME280;32220;49.808;9.968;2023-03-03T00:28:28;99165.06;;;2.41;56.78
46506;BME280;32220;49.808;9.968;2023-03-03T00:30:57;99145.38;;;2.26;56.91
46506;BME280;32220;49.808;9.968;2023-03-03T00:33:30;99168.56;;;2.40;56.93
46506;BME280;32220;49.808;9.968;2023-03-03T00:36:21;99171.16;;;2.41;57.40
46506;BME280;32220;49.808;9.968;2023-03-03T00:38:52;99147.66;;;2.40;58.11
46506;BME280;32220;49.808;9.968;2023-03-03T00:41:22;99131.34;;;2.30;58.48
46506;BME280;32220;49.808;9.968;2023-03-03T00:43:51;99155.47;;;2.41;58.26
46506;BME280;32220;49.808;9.968;2023-03-03T00:46:20;99151.94;;;2.42;59.20
46506;BME280;32220;49.808;9.968;2023-03-03T00:48:50;99145.88;;;2.42;60.50
46506;BME280;32220;49.808;9.968;2023-03-03T00:51:25;99129.56;;;2.32;59.92
46506;BME280;32220;49.808;9.968;2023-03-03T00:53:54;99148.44;;;2.43;60.03
46506;BME280;32220;49.808;9.968;2023-03-03T00:56:22;99152.78;;;2.44;60.14
46506;BME280;32220;49.808;9.968;2023-03-03T00:58:50;99151.03;;;2.45;60.70
46506;BME280;32220;49.808;9.968;2023-03-03T01:01:20;99130.38;;;2.34;60.27
46506;BME280;32220;49.808;9.968;2023-03-03T01:03:54;99153.66;;;2.43;60.42
46506;BME280;32220;49.808;9.968;2023-03-03T01:06:21;99161.69;;;2.36;59.49
46506;BME280;32220;49.808;9.968;2023-03-03T01:08:49;99166.00;;;2.37;59.56
46506;BME280;32220;49.808;9.968;2023-03-03T01:11:20;99167.88;;;2.33;59.28
46506;BME280;32220;49.808;9.968;2023-03-03T01:13:50;99161.84;;;2.30;59.19
46506;BME280;32220;49.808;9.968;2023-03-03T01:16:19;99171.50;;;2.26;58.83
46506;BME280;32220;49.808;9.968;2023-03-03T01:18:46;99170.72;;;2.23;58.86
46506;BME280;32220;49.808;9.968;2023-03-03T01:21:15;99153.66;;;2.09;58.54
46506;BME280;32220;49.808;9.968;2023-03-03T01:23:43;99167.44;;;2.14;58.41
46506;BME280;32220;49.808;9.968;2023-03-03T01:26:11;99170.97;;;2.12;58.78
46506;BME280;32220;49.808;9.968;2023-03-03T01:28:39;99166.63;;;2.11;59.63
46506;BME280;32220;49.808;9.968;2023-03-03T01:31:06;99154.50;;;2.10;61.31
46506;BME280;32220;49.808;9.968;2023-03-03T01:33:35;99154.50;;;2.10;60.81
46506;BME280;32220;49.808;9.968;2023-03-03T01:36:03;99152.78;;;2.09;60.78
46506;BME280;32220;49.808;9.968;2023-03-03T01:38:34;99157.22;;;2.05;60.52
46506;BME280;32220;49.808;9.968;2023-03-03T01:41:02;99152.06;;;2.02;60.82
46506;BME280;32220;49.808;9.968;2023-03-03T01:43:31;99149.56;;;1.98;60.50
46506;BME280;32220;49.808;9.968;2023-03-03T01:46:39;99130.53;;;1.93;62.80
46506;BME280;32220;49.808;9.968;2023-03-03T01:49:13;99136.69;;;1.89;61.97
46506;BME280;32220;49.808;9.968;2023-03-03T01:51:47;99138.53;;;1.85;61.73
46506;BME280;32220;49.808;9.968;2023-03-03T01:54:20;99146.41;;;1.84;61.18
46506;BME280;32220;49.808;9.968;2023-03-03T01:56:53;99124.00;;;1.73;60.65
46506;BME280;32220;49.808;9.968;2023-03-03T01:59:25;99129.38;;;1.67;60.73
46506;BME280;32220;49.808;9.968;2023-03-03T02:01:54;99123.25;;;1.68;61.20
46506;BME280;32220;49.808;9.968;2023-03-03T02:04:22;99120.63;;;1.68;63.93
46506;BME280;32220;49.808;9.968;2023-03-03T02:06:55;99111.19;;;1.63;64.82
46506;BME280;32220;49.808;9.968;2023-03-03T02:09:32;99117.38;;;1.59;63.32
46506;BME280;32220;49.808;9.968;2023-03-03T02:12:06;99126.09;;;1.58;62.80
46506;BME280;32220;49.808;9.968;2023-03-03T02:14:35;99130.53;;;1.54;62.20
46506;BME280;32220;49.808;9.968;2023-03-03T02:17:03;99136.69;;;1.50;61.90
46506;BME280;32220;49.808;9.968;2023-03-03T02:19:36;99136.78;;;1.47;61.63
46506;BME280;32220;49.808;9.968;2023-03-03T02:22:10;99147.31;;;1.42;61.46
46506;BME280;32220;49.808;9.968;2023-03-03T02:24:42;99139.56;;;1.38;61.12
46506;BME280;32220;49.808;9.968;2023-03-03T02:27:13;99136.22;;;1.33;60.92
46506;BME280;32220;49.808;9.968;2023-03-03T02:29:42;99139.75;;;1.29;60.89
46506;BME280;32220;49.808;9.968;2023-03-03T02:32:10;99148.53;;;1.25;60.92
46506;BME280;32220;49.808;9.968;2023-03-03T02:34:49;99145.16;;;1.21;61.09
46506;BME280;32220;49.808;9.968;2023-03-03T02:37:18;99146.94;;;1.19;61.10
46506;BME280;32220;49.808;9.968;2023-03-03T02:39:46;99144.34;;;1.18;61.66
46506;BME280;32220;49.808;9.968;2023-03-03T02:42:19;99132.19;;;1.17;63.16
46506;BME280;32220;49.808;9.968;2023-03-03T02:44:53;99133.09;;;1.14;62.39
46506;BME280;32220;49.808;9.968;2023-03-03T02:47:20;99134.88;;;1.12;62.16
46506;BME280;32220;49.808;9.968;2023-03-03T02:49:48;99129.00;;;1.02;61.89
46506;BME280;32220;49.808;9.968;2023-03-03T02:52:17;99117.84;;;0.96;61.68
46506;BME280;32220;49.808;9.968;2023-03-03T02:54:46;99135.03;;;1.04;61.62
46506;BME280;32220;49.808;9.968;2023-03-03T02:57:14;99132.50;;;1.01;61.73
46506;BME280;32220;49.808;9.968;2023-03-03T02:59:43;99144.69;;;0.99;61.42
46506;BME280;32220;49.808;9.968;2023-03-03T03:02:13;99122.31;;;0.88;62.17
46506;BME280;32220;49.808;9.968;2023-03-03T03:04:41;99138.78;;;0.91;61.83
46506;BME280;32220;49.808;9.968;2023-03-03T03:07:11;99130.25;;;0.83;61.84
46506;BME280;32220;49.808;9.968;2023-03-03T03:09:39;99123.50;;;0.73;62.03
46506;BME280;32220;49.808;9.968;2023-03-03T03:12:07;99150.22;;;0.84;63.17
46506;BME280;32220;49.808;9.968;2023-03-03T03:14:35;99143.31;;;0.82;64.41
46506;BME280;32220;49.808;9.968;2023-03-03T03:17:06;99140.72;;;0.80;63.64
46506;BME280;32220;49.808;9.968;2023-03-03T03:19:34;99143.34;;;0.80;63.68
46506;BME280;32220;49.808;9.968;2023-03-03T03:22:02;99148.56;;;0.79;63.62
46506;BME280;32220;49.808;9.968;2023-03-03T03:24:33;99157.31;;;0.76;63.22
46506;BME280;32220;49.808;9.968;2023-03-03T03:27:04;99154.72;;;0.75;63.01
46506;BME280;32220;49.808;9.968;2023-03-03T03:29:32;99156.56;;;0.71;62.93
46506;BME280;32220;49.808;9.968;2023-03-03T03:32:00;99146.22;;;0.65;62.86
46506;BME280;32220;49.808;9.968;2023-03-03T03:34:30;99154.03;;;0.65;62.81
46506;BME280;32220;49.808;9.968;2023-03-03T03:36:58;99154.94;;;0.62;62.66
46506;BME280;32220;49.808;9.968;2023-03-03T03:39:27;99150.69;;;0.58;63.40
46506;BME280;32220;49.808;9.968;2023-03-03T03:41:55;99154.09;;;0.62;64.07
46506;BME280;32220;49.808;9.968;2023-03-03T03:44:23;99150.69;;;0.60;64.26
46506;BME280;32220;49.808;9.968;2023-03-03T03:46:51;99132.53;;;0.54;64.31
46506;BME280;32220;49.808;9.968;2023-03-03T03:49:19;99138.66;;;0.50;63.92
46506;BME280;32220;49.808;9.968;2023-03-03T03:51:51;99154.22;;;0.56;63.60
46506;BME280;32220;49.808;9.968;2023-03-03T03:54:22;99158.59;;;0.54;63.49
46506;BME280;32220;49.808;9.968;2023-03-03T03:56:51;99146.44;;;0.53;64.24
46506;BME280;32220;49.808;9.968;2023-03-03T03:59:20;99140.47;;;0.48;65.39
46506;BME280;32220;49.808;9.968;2023-03-03T04:01:48;99159.47;;;0.53;64.81
46506;BME280;32220;49.808;9.968;2023-03-03T04:04:17;99131.16;;;0.34;64.50
46506;BME280;32220;49.808;9.968;2023-03-03T04:06:45;99165.59;;;0.50;64.68
46506;BME280;32220;49.808;9.968;2023-03-03T04:09:15;99163.03;;;0.49;65.26
46506;BME280;32220;49.808;9.968;2023-03-03T04:11:43;99141.41;;;0.42;65.84
46506;BME280;32220;49.808;9.968;2023-03-03T04:14:12;99154.41;;;0.44;65.21
46506;BME280;32220;49.808;9.968;2023-03-03T04:16:40;99150.22;;;0.37;65.19
46506;BME280;32220;49.808;9.968;2023-03-03T04:19:08;99160.56;;;0.40;65.53
46506;BME280;32220;49.808;9.968;2023-03-03T04:21:38;99158.81;;;0.40;65.01
46506;BME280;32220;49.808;9.968;2023-03-03T04:24:07;99161.44;;;0.39;64.92
46506;BME280;32220;49.808;9.968;2023-03-03T04:26:36;99139.09;;;0.25;64.68
46506;BME280;32220;49.808;9.968;2023-03-03T04:29:04;99166.72;;;0.35;64.57
46506;BME280;32220;49.808;9.968;2023-03-03T04:31:33;99168.47;;;0.35;65.00
46506;BME280;32220;49.808;9.968;2023-03-03T04:34:02;99173.69;;;0.33;64.59
46506;BME280;32220;49.808;9.968;2023-03-03T04:36:30;99164.19;;;0.31;64.86
46506;BME280;32220;49.808;9.968;2023-03-03T04:38:58;99170.25;;;0.31;64.96
46506;BME280;32220;49.808;9.968;2023-03-03T04:41:26;99178.13;;;0.28;64.63
46506;BME280;32220;49.808;9.968;2023-03-03T04:43:56;99177.28;;;0.26;64.54
46506;BME280;32220;49.808;9.968;2023-03-03T04:46:24;99160.09;;;0.16;64.48
46506;BME280;32220;49.808;9.968;2023-03-03T04:48:51;99186.03;;;0.22;64.61
46506;BME280;32220;49.808;9.968;2023-03-03T04:51:20;99180.84;;;0.21;64.85
46506;BME280;32220;49.808;9.968;2023-03-03T04:53:48;99174.06;;;0.12;64.49
46506;BME280;32220;49.808;9.968;2023-03-03T04:56:16;99186.97;;;0.17;64.60
46506;BME280;32220;49.808;9.968;2023-03-03T04:58:44;99166.38;;;0.02;64.46
46506;BME280;32220;49.808;9.968;2023-03-03T05:01:13;99193.94;;;0.15;64.50
46506;BME280;32220;49.808;9.968;2023-03-03T05:03:41;99179.31;;;0.09;64.84
46506;BME280;32220;49.808;9.968;2023-03-03T05:06:10;99193.09;;;0.14;65.19
46506;BME280;32220;49.808;9.968;2023-03-03T05:08:37;99193.09;;;0.14;65.38
46506;BME280;32220;49.808;9.968;2023-03-03T05:11:08;99188.81;;;0.12;65.71
46506;BME280;32220;49.808;9.968;2023-03-03T05:13:35;99205.31;;;0.12;65.40
46506;BME280;32220;49.808;9.968;2023-03-03T05:16:04;99193.19;;;0.10;65.28
46506;BME280;32220;49.808;9.968;2023-03-03T05:18:33;99187.13;;;0.09;66.24
46506;BME280;32220;49.808;9.968;2023-03-03T05:21:01;99163.88;;;-0.03;66.38
46506;BME280;32220;49.808;9.968;2023-03-03T05:23:29;99167.34;;;-0.04;66.40
46506;BME280;32220;49.808;9.968;2023-03-03T05:25:57;99190.59;;;0.08;66.12
46506;BME280;32220;49.808;9.968;2023-03-03T05:28:25;99194.97;;;0.06;66.11
46506;BME280;32220;49.808;9.968;2023-03-03T05:30:52;99200.19;;;0.05;66.05
46506;BME280;32220;49.808;9.968;2023-03-03T05:33:20;99166.59;;;-0.12;66.11
46506;BME280;32220;49.808;9.968;2023-03-03T05:35:52;99197.63;;;0.02;66.00
46506;BME280;32220;49.808;9.968;2023-03-03T05:38:21;99170.97;;;-0.14;65.90
46506;BME280;32220;49.808;9.968;2023-03-03T05:40:49;99180.53;;;-0.16;65.66
46506;BME280;32220;49.808;9.968;2023-03-03T05:43:17;99210.75;;;-0.06;65.85
46506;BME280;32220;49.808;9.968;2023-03-03T05:45:45;99205.56;;;-0.06;65.59
46506;BME280;32220;49.808;9.968;2023-03-03T05:48:12;99205.59;;;-0.09;65.83
46506;BME280;32220;49.808;9.968;2023-03-03T05:50:40;99202.16;;;-0.11;66.47
46506;BME280;32220;49.808;9.968;2023-03-03T05:53:09;99209.91;;;-0.07;66.74
46506;BME280;32220;49.808;9.968;2023-03-03T05:55:37;99215.97;;;-0.06;66.28
46506;BME280;32220;49.808;9.968;2023-03-03T05:58:04;99214.25;;;-0.07;66.25
46506;BME280;32220;49.808;9.968;2023-03-03T06:00:32;99204.88;;;-0.19;65.94
46506;BME280;32220;49.808;9.968;2023-03-03T06:03:00;99210.84;;;-0.12;65.85
46506;BME280;32220;49.808;9.968;2023-03-03T06:05:28;99214.25;;;-0.07;65.98
46506;BME280;32220;49.808;9.968;2023-03-03T06:07:55;99216.00;;;-0.09;66.04
46506;BME280;32220;49.808;9.968;2023-03-03T06:10:25;99222.91;;;-0.05;65.93
46506;BME280;32220;49.808;9.968;2023-03-03T06:12:55;99224.63;;;-0.04;65.87
46506;BME280;32220;49.808;9.968;2023-03-03T06:15:24;99230.66;;;-0.02;66.12
46506;BME280;32220;49.808;9.968;2023-03-03T06:17:51;99230.59;;;0.03;66.18
46506;BME280;32220;49.808;9.968;2023-03-03T06:20:19;99216.81;;;-0.04;66.60
46506;BME280;32220;49.808;9.968;2023-03-03T06:22:47;99236.59;;;0.09;66.54
46506;BME280;32220;49.808;9.968;2023-03-03T06:25:15;99216.69;;;0.04;66.26
46506;BME280;32220;49.808;9.968;2023-03-03T06:27:44;99231.25;;;0.17;66.14
46506;BME280;32220;49.808;9.968;2023-03-03T06:30:13;99224.41;;;0.11;66.39
46506;BME280;32220;49.808;9.968;2023-03-03T06:32:41;99241.50;;;0.27;66.05
46506;BME280;32220;49.808;9.968;2023-03-03T06:35:09;99261.38;;;0.34;66.02
46506;BME280;32220;49.808;9.968;2023-03-03T06:37:37;99258.66;;;0.41;66.14
46506;BME280;32220;49.808;9.968;2023-03-03T06:40:05;99260.31;;;0.48;65.83
46506;BME280;32220;49.808;9.968;2023-03-03T06:42:35;99254.22;;;0.49;65.85
46506;BME280;32220;49.808;9.968;2023-03-03T06:45:06;99272.28;;;0.61;65.49
46506;BME280;32220;49.808;9.968;2023-03-03T06:47:34;99263.47;;;0.68;65.67
46506;BME280;32220;49.808;9.968;2023-03-03T06:50:02;99253.06;;;0.65;65.51
46506;BME280;32220;49.808;9.968;2023-03-03T06:52:29;99260.72;;;0.76;65.53
46506;BME280;32220;49.808;9.968;2023-03-03T06:55:00;99264.97;;;0.81;65.49
46506;BME280;32220;49.808;9.968;2023-03-03T06:57:30;99269.97;;;0.93;65.02
46506;BME280;32220;49.808;9.968;2023-03-03T07:00:05;99257.63;;;1.04;64.87
46506;BME280;32220;49.808;9.968;2023-03-03T07:02:40;99283.56;;;1.58;64.32
46506;BME280;32220;49.808;9.968;2023-03-03T07:05:11;99312.63;;;2.26;63.64
46506;BME280;32220;49.808;9.968;2023-03-03T07:07:40;99288.19;;;3.01;62.46
46506;BME280;32220;49.808;9.968;2023-03-03T07:10:17;99300.72;;;4.17;61.02
46506;BME280;32220;49.808;9.968;2023-03-03T07:12:46;99308.16;;;5.64;58.25
46506;BME280;32220;49.808;9.968;2023-03-03T07:15:15;99327.06;;;7.12;55.86
46506;BME280;32220;49.808;9.968;2023-03-03T07:17:46;99352.72;;;8.49;53.64
46506;BME280;32220;49.808;9.968;2023-03-03T07:20:19;99364.66;;;9.48;50.81
46506;BME280;32220;49.808;9.968;2023-03-03T07:22:47;99379.19;;;10.59;48.09
46506;BME280;32220;49.808;9.968;2023-03-03T07:25:21;99399.88;;;11.31;46.63
46506;BME280;32220;49.808;9.968;2023-03-03T07:27:52;99398.69;;;10.89;46.35
46506;BME280;32220;49.808;9.968;2023-03-03T07:30:25;99403.09;;;10.07;47.39
46506;BME280;32220;49.808;9.968;2023-03-03T07:32:55;99399.53;;;9.73;48.04
46506;BME280;32220;49.808;9.968;2023-03-03T07:35:45;99403.41;;;10.01;46.83
46506;BME280;32220;49.808;9.968;2023-03-03T07:38:23;99402.00;;;9.59;47.46
46506;BME280;32220;49.808;9.968;2023-03-03T07:40:54;99403.31;;;9.51;47.47
46506;BME280;32220;49.808;9.968;2023-03-03T07:43:30;99408.91;;;8.90;47.87
46506;BME280;32220;49.808;9.968;2023-03-03T07:46:05;99388.66;;;8.33;49.17
46506;BME280;32220;49.808;9.968;2023-03-03T07:48:44;99394.13;;;8.08;50.49
46506;BME280;32220;49.808;9.968;2023-03-03T07:51:15;99387.69;;;7.74;51.20
46506;BME280;32220;49.808;9.968;2023-03-03T07:53:47;99401.03;;;7.49;52.22
46506;BME280;32220;49.808;9.968;2023-03-03T07:56:27;99403.19;;;7.18;53.41
46506;BME280;32220;49.808;9.968;2023-03-03T07:58:57;99385.84;;;6.91;54.16
46506;BME280;32220;49.808;9.968;2023-03-03T08:01:35;99392.09;;;6.88;54.51
46506;BME280;32220;49.808;9.968;2023-03-03T08:04:16;99388.91;;;7.24;54.21
46506;BME280;32220;49.808;9.968;2023-03-03T08:06:47;99395.47;;;7.77;53.60
46506;BME280;32220;49.808;9.968;2023-03-03T08:09:37;99412.81;;;8.03;52.57
46506;BME280;32220;49.808;9.968;2023-03-03T08:15:17;99421.78;;;8.40;51.12
46506;BME280;32220;49.808;9.968;2023-03-03T08:17:46;99413.44;;;8.28;51.19
46506;BME280;32220;49.808;9.968;2023-03-03T08:23:20;99433.25;;;9.68;48.99
46506;BME280;32220;49.808;9.968;2023-03-03T08:25:49;99454.09;;;11.41;45.66
46506;BME280;32220;49.808;9.968;2023-03-03T08:28:17;99463.97;;;13.44;41.80
46506;BME280;32220;49.808;9.968;2023-03-03T08:30:45;99464.81;;;15.01;39.15
46506;BME280;32220;49.808;9.968;2023-03-03T08:33:13;99488.25;;;16.53;36.82
46506;BME280;32220;49.808;9.968;2023-03-03T08:35:41;99496.63;;;17.39;34.47
46506;BME280;32220;49.808;9.968;2023-03-03T08:38:10;99485.34;;;17.90;34.03
46506;BME280;32220;49.808;9.968;2023-03-03T08:40:40;99515.19;;;18.49;32.71
46506;BME280;32220;49.808;9.968;2023-03-03T08:43:08;99482.97;;;17.65;33.26
46506;BME280;32220;49.808;9.968;2023-03-03T08:45:36;99497.50;;;18.58;32.06
46506;BME280;32220;49.808;9.968;2023-03-03T08:48:04;99507.75;;;20.43;30.81
46506;BME280;32220;49.808;9.968;2023-03-03T08:50:32;99527.22;;;21.77;27.62
46506;BME280;32220;49.808;9.968;2023-03-03T08:53:00;99531.84;;;22.66;27.38
46506;BME280;32220;49.808;9.968;2023-03-03T08:55:27;99532.03;;;22.46;26.53
46506;BME280;32220;49.808;9.968;2023-03-03T08:57:56;99531.50;;;23.04;25.86
46506;BME280;32220;49.808;9.968;2023-03-03T09:00:24;99545.09;;;23.72;24.50
46506;BME280;32220;49.808;9.968;2023-03-03T09:02:53;99551.91;;;24.51;23.46
46506;BME280;32220;49.808;9.968;2023-03-03T09:05:21;99542.06;;;25.23;22.84
46506;BME280;32220;49.808;9.968;2023-03-03T09:07:50;99543.47;;;25.74;22.47
46506;BME280;32220;49.808;9.968;2023-03-03T09:10:20;99557.91;;;26.36;21.90
46506;BME280;32220;49.808;9.968;2023-03-03T09:12:55;99560.34;;;26.54;21.63
46506;BME280;32220;49.808;9.968;2023-03-03T09:15:27;99561.13;;;26.86;21.55
46506;BME280;32220;49.808;9.968;2023-03-03T09:17:57;99558.91;;;27.41;20.53
46506;BME280;32220;49.808;9.968;2023-03-03T09:20:34;99563.16;;;27.88;20.95
46506;BME280;32220;49.808;9.968;2023-03-03T09:23:37;99559.59;;;28.38;20.28
46506;BME280;32220;49.808;9.968;2023-03-03T09:26:27;99564.44;;;29.28;19.18
46506;BME280;32220;49.808;9.968;2023-03-03T09:29:08;99546.53;;;29.47;18.30
46506;BME280;32220;49.808;9.968;2023-03-03T09:31:44;99548.63;;;28.95;18.99
46506;BME280;32220;49.808;9.968;2023-03-03T09:34:18;99545.69;;;29.46;18.95
46506;BME280;32220;49.808;9.968;2023-03-03T09:36:46;99559.22;;;29.61;18.88
46506;BME280;32220;49.808;9.968;2023-03-03T09:39:17;99556.75;;;29.73;19.08
46506;BME280;32220;49.808;9.968;2023-03-03T09:45:24;99545.88;;;29.17;19.37
46506;BME280;32220;49.808;9.968;2023-03-03T09:50:52;99531.97;;;25.56;21.75
46506;BME280;32220;49.808;9.968;2023-03-03T09:53:34;99532.44;;;24.55;23.08
46506;BME280;32220;49.808;9.968;2023-03-03T09:56:12;99523.09;;;23.75;24.07
46506;BME280;32220;49.808;9.968;2023-03-03T09:58:52;99519.91;;;23.12;24.79
46506;BME280;32220;49.808;9.968;2023-03-03T10:01:44;99513.59;;;23.63;24.86
46506;BME280;32220;49.808;9.968;2023-03-03T10:07:29;99528.19;;;27.56;20.56
46506;BME280;32220;49.808;9.968;2023-03-03T10:10:16;99536.31;;;29.00;19.26
46506;BME280;32220;49.808;9.968;2023-03-03T10:12:53;99519.56;;;29.37;19.05
46506;BME280;32220;49.808;9.968;2023-03-03T10:15:31;99560.09;;;29.68;18.62
46506;BME280;32220;49.808;9.968;2023-03-03T10:18:12;99546.94;;;30.32;18.21
46506;BME280;32220;49.808;9.968;2023-03-03T10:20:50;99558.00;;;30.85;17.59
46506;BME280;32220;49.808;9.968;2023-03-03T10:23:33;99559.72;;;31.26;17.05
46506;BME280;32220;49.808;9.968;2023-03-03T10:26:15;99561.94;;;31.82;16.70
46506;BME280;32220;49.808;9.968;2023-03-03T10:29:03;99562.97;;;31.81;16.71
46506;BME280;32220;49.808;9.968;2023-03-03T10:31:49;99565.06;;;31.92;15.99
46506;BME280;32220;49.808;9.968;2023-03-03T10:34:35;99563.03;;;32.63;16.60
46506;BME280;32220;49.808;9.968;2023-03-03T10:37:14;99570.31;;;32.82;16.47
46506;BME280;32220;49.808;9.968;2023-03-03T10:39:58;99583.97;;;32.89;16.68
46506;BME280;32220;49.808;9.968;2023-03-03T10:42:52;99579.91;;;31.64;16.76
46506;BME280;32220;49.808;9.968;2023-03-03T10:45:56;99560.53;;;31.06;17.43
46506;BME280;32220;49.808;9.968;2023-03-03T10:48:47;99564.94;;;30.94;17.57
46506;BME280;32220;49.808;9.968;2023-03-03T10:51:25;99561.56;;;30.92;17.39
46506;BME280;32220;49.808;9.968;2023-03-03T10:54:05;99565.56;;;30.83;17.71
46506;BME280;32220;49.808;9.968;2023-03-03T10:56:43;99560.97;;;30.90;18.12
46506;BME280;32220;49.808;9.968;2023-03-03T10:59:33;99565.53;;;31.69;17.33
46506;BME280;32220;49.808;9.968;2023-03-03T11:02:07;99547.75;;;31.98;17.09
46506;BME280;32220;49.808;9.968;2023-03-03T11:04:57;99556.91;;;32.30;16.45
46506;BME280;32220;49.808;9.968;2023-03-03T11:07:34;99565.81;;;32.25;16.72
46506;BME280;32220;49.808;9.968;2023-03-03T11:10:24;99553.59;;;32.21;16.75
46506;BME280;32220;49.808;9.968;2023-03-03T11:13:04;99555.59;;;32.39;16.88
46506;BME280;32220;49.808;9.968;2023-03-03T11:15:45;99543.44;;;32.91;16.76
46506;BME280;32220;49.808;9.968;2023-03-03T11:18:22;99545.56;;;33.82;16.31
46506;BME280;32220;49.808;9.968;2023-03-03T11:20:55;99551.25;;;34.35;15.08
46506;BME280;32220;49.808;9.968;2023-03-03T11:24:01;99555.66;;;33.45;15.42
46506;BME280;32220;49.808;9.968;2023-03-03T11:26:52;99541.25;;;34.04;15.67
46506;BME280;32220;49.808;9.968;2023-03-03T11:29:34;99537.69;;;34.64;14.95
46506;BME280;32220;49.808;9.968;2023-03-03T11:32:17;99530.72;;;34.49;14.69
46506;BME280;32220;49.808;9.968;2023-03-03T11:34:57;99528.34;;;34.94;15.17
46506;BME280;32220;49.808;9.968;2023-03-03T11:37:36;99532.78;;;35.54;14.39
46506;BME280;32220;49.808;9.968;2023-03-03T11:40:12;99526.91;;;35.62;14.93
46506;BME280;32220;49.808;9.968;2023-03-03T11:42:52;99516.94;;;34.91;14.96
46506;BME280;32220;49.808;9.968;2023-03-03T11:45:28;99499.56;;;33.52;15.91
46506;BME280;32220;49.808;9.968;2023-03-03T11:48:01;99505.28;;;32.27;16.93
46506;BME280;32220;49.808;9.968;2023-03-03T11:50:36;99501.19;;;32.36;17.12
46506;BME280;32220;49.808;9.968;2023-03-03T11:53:18;99505.44;;;33.56;16.19
46506;BME280;32220;49.808;9.968;2023-03-03T11:55:56;99497.44;;;35.04;14.89
46506;BME280;32220;49.808;9.968;2023-03-03T11:58:29;99505.28;;;36.34;14.13
46506;BME280;32220;49.808;9.968;2023-03-03T12:01:05;99511.03;;;37.45;13.51
46506;BME280;32220;49.808;9.968;2023-03-03T12:03:39;99510.53;;;38.35;12.94
46506;BME280;32220;49.808;9.968;2023-03-03T12:06:21;99507.78;;;38.94;12.51
46506;BME280;32220;49.808;9.968;2023-03-03T12:09:09;99495.78;;;39.20;12.23
46506;BME280;32220;49.808;9.968;2023-03-03T12:11:46;99505.47;;;39.60;11.68
46506;BME280;32220;49.808;9.968;2023-03-03T12:14:24;99485.34;;;39.79;12.17
46506;BME280;32220;49.808;9.968;2023-03-03T12:16:59;99481.25;;;39.97;12.10
46506;BME280;32220;49.808;9.968;2023-03-03T12:19:33;99479.59;;;39.96;11.59
46506;BME280;32220;49.808;9.968;2023-03-03T12:22:10;99473.75;;;39.40;12.19
46506;BME280;32220;49.808;9.968;2023-03-03T12:24:59;99457.91;;;38.94;12.35
46506;BME280;32220;49.808;9.968;2023-03-03T12:27:35;99448.84;;;38.66;11.98
46506;BME280;32220;49.808;9.968;2023-03-03T12:30:12;99456.25;;;38.56;12.43
46506;BME280;32220;49.808;9.968;2023-03-03T12:32:56;99440.19;;;38.95;12.25
46506;BME280;32220;49.808;9.968;2023-03-03T12:35:30;99443.97;;;39.15;12.10
46506;BME280;32220;49.808;9.968;2023-03-03T12:38:10;99448.91;;;39.56;11.47
46506;BME280;32220;49.808;9.968;2023-03-03T12:40:45;99449.56;;;39.78;10.83
46506;BME280;32220;49.808;9.968;2023-03-03T12:43:30;99452.09;;;39.37;10.75
46506;BME280;32220;49.808;9.968;2023-03-03T12:46:06;99437.97;;;38.92;11.12
46506;BME280;32220;49.808;9.968;2023-03-03T12:48:41;99446.72;;;38.78;11.16
46506;BME280;32220;49.808;9.968;2023-03-03T12:51:16;99445.34;;;38.49;11.36
46506;BME280;32220;49.808;9.968;2023-03-03T12:54:01;99437.53;;;38.14;11.96
46506;BME280;32220;49.808;9.968;2023-03-03T12:56:37;99433.44;;;38.49;11.88
46506;BME280;32220;49.808;9.968;2023-03-03T12:59:10;99420.69;;;38.79;11.88
46506;BME280;32220;49.808;9.968;2023-03-03T13:01:47;99425.28;;;38.64;11.61
46506;BME280;32220;49.808;9.968;2023-03-03T13:04:32;99409.88;;;37.05;12.50
46506;BME280;32220;49.808;9.968;2023-03-03T13:07:06;99400.53;;;35.54;13.03
46506;BME280;32220;49.808;9.968;2023-03-03T13:09:50;99395.56;;;35.27;13.71
46506;BME280;32220;49.808;9.968;2023-03-03T13:12:30;99399.19;;;35.96;13.39
46506;BME280;32220;49.808;9.968;2023-03-03T13:15:07;99397.69;;;36.34;13.27
46506;BME280;32220;49.808;9.968;2023-03-03T13:17:42;99400.63;;;36.44;13.18
46506;BME280;32220;49.808;9.968;2023-03-03T13:20:22;99398.19;;;36.31;12.77
46506;BME280;32220;49.808;9.968;2023-03-03T13:22:56;99388.72;;;36.27;13.09
46506;BME280;32220;49.808;9.968;2023-03-03T13:25:43;99395.22;;;36.21;12.98
46506;BME280;32220;49.808;9.968;2023-03-03T13:28:21;99389.09;;;36.47;13.15
46506;BME280;32220;49.808;9.968;2023-03-03T13:30:55;99390.16;;;36.80;13.29
46506;BME280;32220;49.808;9.968;2023-03-03T13:33:27;99391.13;;;37.07;12.83
46506;BME280;32220;49.808;9.968;2023-03-03T13:35:58;99358.94;;;36.62;12.52
46506;BME280;32220;49.808;9.968;2023-03-03T13:38:30;99387.22;;;36.53;12.47
46506;BME280;32220;49.808;9.968;2023-03-03T13:41:04;99391.16;;;36.40;12.82
46506;BME280;32220;49.808;9.968;2023-03-03T13:43:40;99377.50;;;36.17;13.15
46506;BME280;32220;49.808;9.968;2023-03-03T13:46:15;99384.34;;;36.14;12.67
46506;BME280;32220;49.808;9.968;2023-03-03T13:49:02;99382.59;;;35.80;12.53
46506;BME280;32220;49.808;9.968;2023-03-03T13:51:41;99381.75;;;35.39;12.47